Orbital elements of COSMOS 1275 DEB
| Launched | 3 June 1981 |
| Flight ended | – |
| Launch site | Plesetsk Missile and Space Complex, Russia |
| Owner | Commonwealth of Independent States (former USSR) |
| NORAD ID | 12671 |
| Date fetched |
Epoch osculation |
Inc. [°] |
Ecc. | RA asc node [hr] |
Arg Peri. [°] |
Mean anom [°] |
Mean motion [rev/day] |
Abs. mag |
| Date fetched |
Epoch osculation |
Inc. [°] |
Ecc. | RA asc node [hr] |
Arg Peri. [°] |
Mean anom [°] |
Mean motion [rev/day] |
Abs. mag |
| 2026 May 08 17:57 | 2026 May 05 12:46:37 | 82.9076 | 0.00186 | 14.8657 | 38.2114 | 322.0373 | 14.11772 | – |
| 2026 May 07 17:58 | 2026 May 05 12:46:37 | 82.9076 | 0.00186 | 14.8657 | 38.2114 | 322.0373 | 14.11772 | – |
| 2026 May 06 17:57 | 2026 May 05 12:46:37 | 82.9076 | 0.00186 | 14.8657 | 38.2114 | 322.0373 | 14.11772 | – |
| 2026 May 05 17:57 | 2026 May 05 12:46:37 | 82.9076 | 0.00186 | 14.8657 | 38.2114 | 322.0373 | 14.11772 | – |
| 2026 May 04 17:57 | 2026 Apr 30 13:42:28 | 82.9070 | 0.00191 | 15.1275 | 52.2449 | 322.0373 | 14.11772 | – |
| 2026 May 03 17:57 | 2026 Apr 30 13:42:28 | 82.9070 | 0.00191 | 15.1275 | 52.2449 | 322.0373 | 14.11772 | – |
| 2026 May 02 17:57 | 2026 Apr 30 13:42:28 | 82.9070 | 0.00191 | 15.1275 | 52.2449 | 322.0373 | 14.11772 | – |
| 2026 May 01 17:56 | 2026 Apr 30 13:42:28 | 82.9070 | 0.00191 | 15.1275 | 52.2449 | 322.0373 | 14.11772 | – |
| 2026 Apr 30 17:56 | 2026 Apr 30 13:42:28 | 82.9070 | 0.00191 | 15.1275 | 52.2449 | 322.0373 | 14.11772 | – |
| 2026 Apr 29 17:57 | 2026 Apr 24 08:01:10 | 82.9071 | 0.00199 | 15.4567 | 70.0313 | 322.0373 | 14.11772 | – |
| 2026 Apr 28 17:56 | 2026 Apr 24 08:01:10 | 82.9071 | 0.00199 | 15.4567 | 70.0313 | 322.0373 | 14.11772 | – |
| 2026 Apr 27 17:58 | 2026 Apr 24 08:01:10 | 82.9071 | 0.00199 | 15.4567 | 70.0313 | 322.0373 | 14.11772 | – |
| 2026 Apr 26 17:58 | 2026 Apr 24 08:01:10 | 82.9071 | 0.00199 | 15.4567 | 70.0313 | 322.0373 | 14.11772 | – |
| 2026 Apr 25 17:58 | 2026 Apr 24 08:01:10 | 82.9071 | 0.00199 | 15.4567 | 70.0313 | 322.0373 | 14.11772 | – |
| 2026 Apr 24 17:59 | 2026 Apr 24 08:01:10 | 82.9071 | 0.00199 | 15.4567 | 70.0313 | 322.0373 | 14.11772 | – |
| 2026 Apr 23 17:57 | 2026 Apr 19 07:14:48 | 82.9065 | 0.00205 | 15.7223 | 84.1639 | 322.0373 | 14.11772 | – |
| 2026 Apr 22 17:57 | 2026 Apr 19 07:14:48 | 82.9065 | 0.00205 | 15.7223 | 84.1639 | 322.0373 | 14.11772 | – |
| 2026 Apr 21 17:57 | 2026 Apr 19 07:14:48 | 82.9065 | 0.00205 | 15.7223 | 84.1639 | 322.0373 | 14.11772 | – |
| 2026 Apr 20 17:57 | 2026 Apr 19 07:14:48 | 82.9065 | 0.00205 | 15.7223 | 84.1639 | 322.0373 | 14.11772 | – |
| 2026 Apr 19 17:58 | 2026 Apr 19 07:14:48 | 82.9065 | 0.00205 | 15.7223 | 84.1639 | 322.0373 | 14.11772 | – |
| 2026 Apr 18 17:56 | 2026 Apr 12 15:20:55 | 82.9049 | 0.00207 | 16.0739 | 102.1902 | 322.0373 | 14.11772 | – |
| 2026 Apr 16 17:57 | 2026 Apr 12 15:20:55 | 82.9049 | 0.00207 | 16.0739 | 102.1902 | 322.0373 | 14.11772 | – |
| 2026 Apr 14 17:57 | 2026 Apr 12 15:20:55 | 82.9049 | 0.00207 | 16.0739 | 102.1902 | 322.0373 | 14.11772 | – |
| 2026 Apr 13 17:57 | 2026 Apr 12 15:20:55 | 82.9049 | 0.00207 | 16.0739 | 102.1902 | 322.0373 | 14.11772 | – |
| 2026 Apr 12 17:57 | 2026 Apr 08 16:05:22 | 82.9050 | 0.00207 | 16.2835 | 112.9796 | 322.0373 | 14.11772 | – |
| 2026 Apr 11 17:57 | 2026 Apr 08 16:05:22 | 82.9050 | 0.00207 | 16.2835 | 112.9796 | 322.0373 | 14.11772 | – |